sensor_id;sensor_type;location;lat;lon;timestamp;P1;durP1;ratioP1;P2;durP2;ratioP2
36211;SDS011;22247;48.586;13.492;2022-10-16T00:01:31;18.23;;;6.50;;
36211;SDS011;22247;48.586;13.492;2022-10-16T00:04:02;32.92;;;7.70;;
36211;SDS011;22247;48.586;13.492;2022-10-16T00:06:32;21.70;;;6.93;;
36211;SDS011;22247;48.586;13.492;2022-10-16T00:08:58;23.58;;;8.30;;
36211;SDS011;22247;48.586;13.492;2022-10-16T00:11:28;24.65;;;8.05;;
36211;SDS011;22247;48.586;13.492;2022-10-16T00:13:59;26.20;;;7.55;;
36211;SDS011;22247;48.586;13.492;2022-10-16T00:16:28;23.08;;;8.07;;
36211;SDS011;22247;48.586;13.492;2022-10-16T00:18:55;27.45;;;8.02;;
36211;SDS011;22247;48.586;13.492;2022-10-16T00:21:22;35.55;;;8.57;;
36211;SDS011;22247;48.586;13.492;2022-10-16T00:23:55;21.08;;;7.70;;
36211;SDS011;22247;48.586;13.492;2022-10-16T00:26:25;25.13;;;7.30;;
36211;SDS011;22247;48.586;13.492;2022-10-16T00:28:51;24.13;;;7.97;;
36211;SDS011;22247;48.586;13.492;2022-10-16T00:31:21;19.90;;;7.60;;
36211;SDS011;22247;48.586;13.492;2022-10-16T00:36:17;19.55;;;7.15;;
36211;SDS011;22247;48.586;13.492;2022-10-16T00:38:45;28.83;;;8.18;;
36211;SDS011;22247;48.586;13.492;2022-10-16T00:41:13;50.22;;;8.15;;
36211;SDS011;22247;48.586;13.492;2022-10-16T00:43:42;25.73;;;7.63;;
36211;SDS011;22247;48.586;13.492;2022-10-16T00:48:45;26.20;;;7.53;;
36211;SDS011;22247;48.586;13.492;2022-10-16T00:51:21;21.88;;;7.95;;
36211;SDS011;22247;48.586;13.492;2022-10-16T00:53:50;30.83;;;8.57;;
36211;SDS011;22247;48.586;13.492;2022-10-16T00:56:17;24.27;;;7.65;;
36211;SDS011;22247;48.586;13.492;2022-10-16T00:58:48;24.00;;;8.25;;
36211;SDS011;22247;48.586;13.492;2022-10-16T01:01:14;25.45;;;7.97;;
36211;SDS011;22247;48.586;13.492;2022-10-16T01:03:40;23.70;;;7.47;;
36211;SDS011;22247;48.586;13.492;2022-10-16T01:06:12;32.20;;;8.65;;
36211;SDS011;22247;48.586;13.492;2022-10-16T01:09:16;24.60;;;7.38;;
36211;SDS011;22247;48.586;13.492;2022-10-16T01:11:37;26.13;;;7.35;;
36211;SDS011;22247;48.586;13.492;2022-10-16T01:14:26;16.02;;;5.97;;
36211;SDS011;22247;48.586;13.492;2022-10-16T01:17:19;27.50;;;5.93;;
36211;SDS011;22247;48.586;13.492;2022-10-16T01:20:08;21.88;;;5.80;;
36211;SDS011;22247;48.586;13.492;2022-10-16T01:22:39;85.13;;;8.90;;
36211;SDS011;22247;48.586;13.492;2022-10-16T01:28:12;27.23;;;6.57;;
36211;SDS011;22247;48.586;13.492;2022-10-16T01:30:41;24.17;;;7.20;;
36211;SDS011;22247;48.586;13.492;2022-10-16T01:33:10;23.38;;;5.95;;
36211;SDS011;22247;48.586;13.492;2022-10-16T01:35:52;21.95;;;6.22;;
36211;SDS011;22247;48.586;13.492;2022-10-16T01:38:23;19.27;;;5.97;;
36211;SDS011;22247;48.586;13.492;2022-10-16T01:41:04;48.70;;;6.55;;
36211;SDS011;22247;48.586;13.492;2022-10-16T01:43:48;11.05;;;4.63;;
36211;SDS011;22247;48.586;13.492;2022-10-16T01:46:21;26.83;;;6.40;;
36211;SDS011;22247;48.586;13.492;2022-10-16T01:48:51;25.75;;;6.53;;
36211;SDS011;22247;48.586;13.492;2022-10-16T01:51:18;21.75;;;6.10;;
36211;SDS011;22247;48.586;13.492;2022-10-16T01:53:49;17.17;;;6.10;;
36211;SDS011;22247;48.586;13.492;2022-10-16T01:56:21;15.65;;;5.47;;
36211;SDS011;22247;48.586;13.492;2022-10-16T01:58:51;23.42;;;5.82;;
36211;SDS011;22247;48.586;13.492;2022-10-16T02:01:25;18.75;;;6.00;;
36211;SDS011;22247;48.586;13.492;2022-10-16T02:03:54;13.02;;;5.32;;
36211;SDS011;22247;48.586;13.492;2022-10-16T02:06:24;14.43;;;5.72;;
36211;SDS011;22247;48.586;13.492;2022-10-16T02:08:50;21.08;;;6.82;;
36211;SDS011;22247;48.586;13.492;2022-10-16T02:11:16;28.00;;;5.88;;
36211;SDS011;22247;48.586;13.492;2022-10-16T02:13:46;15.82;;;6.55;;
36211;SDS011;22247;48.586;13.492;2022-10-16T02:16:16;53.88;;;8.48;;
36211;SDS011;22247;48.586;13.492;2022-10-16T02:18:42;40.35;;;7.35;;
36211;SDS011;22247;48.586;13.492;2022-10-16T02:26:12;193.90;;;17.92;;
36211;SDS011;22247;48.586;13.492;2022-10-16T02:28:45;99.53;;;13.27;;
36211;SDS011;22247;48.586;13.492;2022-10-16T02:31:20;98.50;;;12.45;;
36211;SDS011;22247;48.586;13.492;2022-10-16T02:33:55;107.70;;;11.93;;
36211;SDS011;22247;48.586;13.492;2022-10-16T02:36:23;59.50;;;9.60;;
36211;SDS011;22247;48.586;13.492;2022-10-16T02:38:52;217.73;;;15.80;;
36211;SDS011;22247;48.586;13.492;2022-10-16T02:41:21;184.88;;;13.80;;
36211;SDS011;22247;48.586;13.492;2022-10-16T02:43:50;97.80;;;12.07;;
36211;SDS011;22247;48.586;13.492;2022-10-16T02:46:18;150.77;;;13.93;;
36211;SDS011;22247;48.586;13.492;2022-10-16T02:48:44;142.43;;;13.18;;
36211;SDS011;22247;48.586;13.492;2022-10-16T02:51:10;227.82;;;13.82;;
36211;SDS011;22247;48.586;13.492;2022-10-16T02:53:41;106.45;;;10.77;;
36211;SDS011;22247;48.586;13.492;2022-10-16T02:56:07;226.30;;;15.32;;
36211;SDS011;22247;48.586;13.492;2022-10-16T02:58:33;138.38;;;11.98;;
36211;SDS011;22247;48.586;13.492;2022-10-16T03:00:59;106.35;;;10.80;;
36211;SDS011;22247;48.586;13.492;2022-10-16T03:03:25;140.80;;;11.05;;
36211;SDS011;22247;48.586;13.492;2022-10-16T03:05:51;103.78;;;11.50;;
36211;SDS011;22247;48.586;13.492;2022-10-16T03:11:13;159.65;;;12.63;;
36211;SDS011;22247;48.586;13.492;2022-10-16T03:13:47;185.05;;;12.90;;
36211;SDS011;22247;48.586;13.492;2022-10-16T03:16:16;82.28;;;9.02;;
36211;SDS011;22247;48.586;13.492;2022-10-16T03:18:42;161.80;;;13.70;;
36211;SDS011;22247;48.586;13.492;2022-10-16T03:21:08;159.45;;;13.88;;
36211;SDS011;22247;48.586;13.492;2022-10-16T03:23:34;111.20;;;14.55;;
36211;SDS011;22247;48.586;13.492;2022-10-16T03:26:00;183.48;;;14.82;;
36211;SDS011;22247;48.586;13.492;2022-10-16T03:28:26;182.43;;;13.57;;
36211;SDS011;22247;48.586;13.492;2022-10-16T03:30:54;194.07;;;15.77;;
36211;SDS011;22247;48.586;13.492;2022-10-16T03:33:20;184.73;;;13.35;;
36211;SDS011;22247;48.586;13.492;2022-10-16T03:35:53;148.85;;;13.32;;
36211;SDS011;22247;48.586;13.492;2022-10-16T03:38:20;168.77;;;16.20;;
36211;SDS011;22247;48.586;13.492;2022-10-16T03:40:48;120.72;;;13.63;;
36211;SDS011;22247;48.586;13.492;2022-10-16T03:43:14;100.20;;;12.05;;
36211;SDS011;22247;48.586;13.492;2022-10-16T03:45:40;114.63;;;13.93;;
36211;SDS011;22247;48.586;13.492;2022-10-16T03:48:06;175.63;;;14.85;;
36211;SDS011;22247;48.586;13.492;2022-10-16T03:50:32;56.70;;;11.13;;
36211;SDS011;22247;48.586;13.492;2022-10-16T03:52:58;64.50;;;11.32;;
36211;SDS011;22247;48.586;13.492;2022-10-16T03:55:24;179.18;;;15.07;;
36211;SDS011;22247;48.586;13.492;2022-10-16T03:57:50;60.22;;;11.73;;
36211;SDS011;22247;48.586;13.492;2022-10-16T04:00:20;137.50;;;11.80;;
36211;SDS011;22247;48.586;13.492;2022-10-16T04:02:48;154.68;;;13.43;;
36211;SDS011;22247;48.586;13.492;2022-10-16T04:05:14;59.95;;;10.70;;
36211;SDS011;22247;48.586;13.492;2022-10-16T04:07:40;59.15;;;9.95;;
36211;SDS011;22247;48.586;13.492;2022-10-16T04:10:06;43.75;;;9.98;;
36211;SDS011;22247;48.586;13.492;2022-10-16T04:12:32;48.78;;;9.63;;
36211;SDS011;22247;48.586;13.492;2022-10-16T04:14:58;69.15;;;10.02;;
36211;SDS011;22247;48.586;13.492;2022-10-16T04:17:24;49.45;;;10.57;;
36211;SDS011;22247;48.586;13.492;2022-10-16T04:19:50;40.90;;;11.27;;
36211;SDS011;22247;48.586;13.492;2022-10-16T04:22:16;43.63;;;10.43;;
36211;SDS011;22247;48.586;13.492;2022-10-16T04:24:42;36.53;;;10.82;;
36211;SDS011;22247;48.586;13.492;2022-10-16T04:27:08;29.10;;;9.98;;
36211;SDS011;22247;48.586;13.492;2022-10-16T04:29:36;38.42;;;9.70;;
36211;SDS011;22247;48.586;13.492;2022-10-16T04:32:03;30.10;;;9.25;;
36211;SDS011;22247;48.586;13.492;2022-10-16T04:34:29;39.05;;;9.85;;
36211;SDS011;22247;48.586;13.492;2022-10-16T04:36:55;29.38;;;8.75;;
36211;SDS011;22247;48.586;13.492;2022-10-16T04:39:27;40.80;;;9.93;;
36211;SDS011;22247;48.586;13.492;2022-10-16T04:41:53;33.58;;;9.57;;
36211;SDS011;22247;48.586;13.492;2022-10-16T04:44:21;32.53;;;9.50;;
36211;SDS011;22247;48.586;13.492;2022-10-16T04:46:47;27.55;;;9.50;;
36211;SDS011;22247;48.586;13.492;2022-10-16T04:49:16;37.53;;;8.70;;
36211;SDS011;22247;48.586;13.492;2022-10-16T04:51:42;21.50;;;8.02;;
36211;SDS011;22247;48.586;13.492;2022-10-16T04:54:10;29.77;;;9.02;;
36211;SDS011;22247;48.586;13.492;2022-10-16T04:56:38;32.50;;;8.90;;
36211;SDS011;22247;48.586;13.492;2022-10-16T04:59:12;25.48;;;8.45;;
36211;SDS011;22247;48.586;13.492;2022-10-16T05:01:42;32.45;;;8.75;;
36211;SDS011;22247;48.586;13.492;2022-10-16T05:04:08;29.73;;;8.30;;
36211;SDS011;22247;48.586;13.492;2022-10-16T05:09:13;28.67;;;8.80;;
36211;SDS011;22247;48.586;13.492;2022-10-16T05:11:51;28.95;;;8.20;;
36211;SDS011;22247;48.586;13.492;2022-10-16T05:21:12;29.10;;;8.00;;
36211;SDS011;22247;48.586;13.492;2022-10-16T05:23:47;32.22;;;8.10;;
36211;SDS011;22247;48.586;13.492;2022-10-16T05:36:53;34.63;;;8.95;;
36211;SDS011;22247;48.586;13.492;2022-10-16T05:39:19;44.67;;;8.50;;
36211;SDS011;22247;48.586;13.492;2022-10-16T05:41:53;34.30;;;8.88;;
36211;SDS011;22247;48.586;13.492;2022-10-16T05:44:50;26.13;;;8.85;;
36211;SDS011;22247;48.586;13.492;2022-10-16T06:09:49;21.35;;;9.18;;
36211;SDS011;22247;48.586;13.492;2022-10-16T06:12:37;26.20;;;8.77;;
36211;SDS011;22247;48.586;13.492;2022-10-16T06:18:06;21.90;;;8.98;;
36211;SDS011;22247;48.586;13.492;2022-10-16T06:20:31;28.25;;;8.82;;
36211;SDS011;22247;48.586;13.492;2022-10-16T06:23:00;23.30;;;9.00;;
36211;SDS011;22247;48.586;13.492;2022-10-16T06:25:29;23.23;;;9.40;;
36211;SDS011;22247;48.586;13.492;2022-10-16T06:27:57;18.77;;;7.47;;
36211;SDS011;22247;48.586;13.492;2022-10-16T06:30:26;21.27;;;9.18;;
36211;SDS011;22247;48.586;13.492;2022-10-16T06:32:52;23.13;;;8.85;;
36211;SDS011;22247;48.586;13.492;2022-10-16T06:35:18;25.45;;;8.52;;
36211;SDS011;22247;48.586;13.492;2022-10-16T06:37:44;15.65;;;7.93;;
36211;SDS011;22247;48.586;13.492;2022-10-16T06:40:10;19.27;;;8.90;;
36211;SDS011;22247;48.586;13.492;2022-10-16T06:42:38;16.08;;;7.80;;
36211;SDS011;22247;48.586;13.492;2022-10-16T06:45:04;15.40;;;7.47;;
36211;SDS011;22247;48.586;13.492;2022-10-16T06:47:31;16.88;;;6.95;;
36211;SDS011;22247;48.586;13.492;2022-10-16T06:49:57;18.52;;;7.82;;
36211;SDS011;22247;48.586;13.492;2022-10-16T06:52:23;16.30;;;7.35;;
36211;SDS011;22247;48.586;13.492;2022-10-16T06:54:49;21.02;;;7.50;;
36211;SDS011;22247;48.586;13.492;2022-10-16T06:57:15;16.40;;;6.72;;
36211;SDS011;22247;48.586;13.492;2022-10-16T06:59:41;15.15;;;7.88;;
36211;SDS011;22247;48.586;13.492;2022-10-16T07:02:10;19.85;;;6.88;;
36211;SDS011;22247;48.586;13.492;2022-10-16T07:04:36;19.48;;;6.78;;
36211;SDS011;22247;48.586;13.492;2022-10-16T07:07:02;13.85;;;5.93;;
36211;SDS011;22247;48.586;13.492;2022-10-16T07:09:28;18.15;;;7.03;;
36211;SDS011;22247;48.586;13.492;2022-10-16T07:11:56;14.05;;;6.47;;
36211;SDS011;22247;48.586;13.492;2022-10-16T07:14:22;13.07;;;6.15;;
36211;SDS011;22247;48.586;13.492;2022-10-16T07:16:48;11.82;;;6.22;;
36211;SDS011;22247;48.586;13.492;2022-10-16T07:19:14;11.10;;;5.82;;
36211;SDS011;22247;48.586;13.492;2022-10-16T07:21:43;11.25;;;6.30;;
36211;SDS011;22247;48.586;13.492;2022-10-16T07:24:13;14.73;;;6.13;;
36211;SDS011;22247;48.586;13.492;2022-10-16T07:26:44;16.48;;;6.45;;
36211;SDS011;22247;48.586;13.492;2022-10-16T07:29:15;15.93;;;6.25;;
36211;SDS011;22247;48.586;13.492;2022-10-16T07:31:47;14.88;;;6.55;;
36211;SDS011;22247;48.586;13.492;2022-10-16T07:34:18;12.68;;;5.85;;
36211;SDS011;22247;48.586;13.492;2022-10-16T07:36:49;14.00;;;6.28;;
36211;SDS011;22247;48.586;13.492;2022-10-16T07:39:15;14.60;;;5.78;;
36211;SDS011;22247;48.586;13.492;2022-10-16T07:41:46;17.35;;;5.75;;
36211;SDS011;22247;48.586;13.492;2022-10-16T07:44:11;15.32;;;6.90;;
36211;SDS011;22247;48.586;13.492;2022-10-16T07:46:37;14.90;;;6.20;;
36211;SDS011;22247;48.586;13.492;2022-10-16T07:49:03;16.00;;;7.20;;
36211;SDS011;22247;48.586;13.492;2022-10-16T07:51:30;16.13;;;6.57;;
36211;SDS011;22247;48.586;13.492;2022-10-16T07:53:56;14.80;;;7.38;;
36211;SDS011;22247;48.586;13.492;2022-10-16T07:56:22;14.05;;;6.43;;
36211;SDS011;22247;48.586;13.492;2022-10-16T07:58:51;16.20;;;6.85;;
36211;SDS011;22247;48.586;13.492;2022-10-16T08:01:17;12.93;;;5.57;;
36211;SDS011;22247;48.586;13.492;2022-10-16T08:03:44;15.55;;;6.80;;
36211;SDS011;22247;48.586;13.492;2022-10-16T08:08:42;15.82;;;7.15;;
36211;SDS011;22247;48.586;13.492;2022-10-16T08:14:29;12.80;;;6.40;;
36211;SDS011;22247;48.586;13.492;2022-10-16T08:16:55;11.48;;;5.70;;
36211;SDS011;22247;48.586;13.492;2022-10-16T08:19:21;12.65;;;6.38;;
36211;SDS011;22247;48.586;13.492;2022-10-16T08:21:47;15.85;;;5.50;;
36211;SDS011;22247;48.586;13.492;2022-10-16T08:24:13;13.85;;;5.93;;
36211;SDS011;22247;48.586;13.492;2022-10-16T08:26:39;12.98;;;5.57;;
36211;SDS011;22247;48.586;13.492;2022-10-16T08:29:07;12.50;;;5.72;;
36211;SDS011;22247;48.586;13.492;2022-10-16T08:31:33;15.20;;;5.68;;
36211;SDS011;22247;48.586;13.492;2022-10-16T08:34:00;11.57;;;4.65;;
36211;SDS011;22247;48.586;13.492;2022-10-16T08:36:26;11.88;;;5.43;;
36211;SDS011;22247;48.586;13.492;2022-10-16T08:38:54;9.95;;;5.07;;
36211;SDS011;22247;48.586;13.492;2022-10-16T08:49:36;11.15;;;4.88;;
36211;SDS011;22247;48.586;13.492;2022-10-16T08:52:10;9.60;;;4.60;;
36211;SDS011;22247;48.586;13.492;2022-10-16T08:54:41;10.57;;;4.47;;
36211;SDS011;22247;48.586;13.492;2022-10-16T08:57:21;6.40;;;3.72;;
36211;SDS011;22247;48.586;13.492;2022-10-16T08:59:49;7.72;;;3.72;;
36211;SDS011;22247;48.586;13.492;2022-10-16T09:02:27;13.32;;;3.63;;
36211;SDS011;22247;48.586;13.492;2022-10-16T09:13:09;11.43;;;4.20;;
36211;SDS011;22247;48.586;13.492;2022-10-16T09:18:34;6.68;;;3.83;;
36211;SDS011;22247;48.586;13.492;2022-10-16T09:21:25;6.75;;;2.53;;
36211;SDS011;22247;48.586;13.492;2022-10-16T09:23:57;4.50;;;2.53;;
36211;SDS011;22247;48.586;13.492;2022-10-16T09:26:39;7.93;;;2.80;;
36211;SDS011;22247;48.586;13.492;2022-10-16T09:29:05;5.55;;;3.10;;
36211;SDS011;22247;48.586;13.492;2022-10-16T09:31:35;9.63;;;4.15;;
36211;SDS011;22247;48.586;13.492;2022-10-16T09:34:02;8.82;;;4.07;;
36211;SDS011;22247;48.586;13.492;2022-10-16T09:36:40;9.25;;;3.45;;
36211;SDS011;22247;48.586;13.492;2022-10-16T09:39:09;6.82;;;3.75;;
36211;SDS011;22247;48.586;13.492;2022-10-16T09:41:41;5.78;;;2.88;;
36211;SDS011;22247;48.586;13.492;2022-10-16T09:44:19;7.28;;;2.92;;
36211;SDS011;22247;48.586;13.492;2022-10-16T09:46:48;7.97;;;2.33;;
36211;SDS011;22247;48.586;13.492;2022-10-16T09:49:23;5.35;;;2.58;;
36211;SDS011;22247;48.586;13.492;2022-10-16T09:51:50;6.47;;;2.10;;
36211;SDS011;22247;48.586;13.492;2022-10-16T09:54:29;4.55;;;2.30;;
36211;SDS011;22247;48.586;13.492;2022-10-16T09:57:03;7.13;;;2.15;;
36211;SDS011;22247;48.586;13.492;2022-10-16T09:59:45;5.03;;;2.53;;
36211;SDS011;22247;48.586;13.492;2022-10-16T10:02:13;5.18;;;2.25;;
36211;SDS011;22247;48.586;13.492;2022-10-16T10:04:41;5.43;;;1.70;;
36211;SDS011;22247;48.586;13.492;2022-10-16T10:07:18;5.20;;;2.50;;
36211;SDS011;22247;48.586;13.492;2022-10-16T10:09:52;5.68;;;1.70;;
36211;SDS011;22247;48.586;13.492;2022-10-16T10:12:29;5.22;;;2.20;;
36211;SDS011;22247;48.586;13.492;2022-10-16T10:15:05;4.20;;;1.73;;
36211;SDS011;22247;48.586;13.492;2022-10-16T10:17:45;8.45;;;1.48;;
36211;SDS011;22247;48.586;13.492;2022-10-16T10:20:25;3.50;;;1.48;;
36211;SDS011;22247;48.586;13.492;2022-10-16T10:23:20;5.35;;;2.47;;
36211;SDS011;22247;48.586;13.492;2022-10-16T10:31:29;2.55;;;1.48;;
36211;SDS011;22247;48.586;13.492;2022-10-16T10:34:16;6.85;;;1.65;;
36211;SDS011;22247;48.586;13.492;2022-10-16T10:55:58;2.53;;;0.98;;
36211;SDS011;22247;48.586;13.492;2022-10-16T10:58:50;3.17;;;1.40;;
36211;SDS011;22247;48.586;13.492;2022-10-16T11:07:30;3.35;;;1.30;;
36211;SDS011;22247;48.586;13.492;2022-10-16T11:09:52;4.22;;;1.45;;
36211;SDS011;22247;48.586;13.492;2022-10-16T11:16:10;2.13;;;1.00;;
36211;SDS011;22247;48.586;13.492;2022-10-16T11:30:29;4.70;;;0.80;;
36211;SDS011;22247;48.586;13.492;2022-10-16T11:38:12;6.07;;;1.00;;
36211;SDS011;22247;48.586;13.492;2022-10-16T11:40:40;4.05;;;1.17;;
36211;SDS011;22247;48.586;13.492;2022-10-16T11:46:02;4.90;;;1.88;;
36211;SDS011;22247;48.586;13.492;2022-10-16T11:51:40;1.58;;;0.88;;
36211;SDS011;22247;48.586;13.492;2022-10-16T11:57:17;3.70;;;1.00;;
36211;SDS011;22247;48.586;13.492;2022-10-16T12:15:15;3.15;;;0.80;;
36211;SDS011;22247;48.586;13.492;2022-10-16T12:17:50;2.15;;;0.90;;
36211;SDS011;22247;48.586;13.492;2022-10-16T12:25:30;4.97;;;0.70;;
36211;SDS011;22247;48.586;13.492;2022-10-16T12:28:05;2.35;;;0.90;;
36211;SDS011;22247;48.586;13.492;2022-10-16T12:30:42;1.70;;;0.60;;
36211;SDS011;22247;48.586;13.492;2022-10-16T12:33:23;1.20;;;0.80;;
36211;SDS011;22247;48.586;13.492;2022-10-16T12:35:52;5.78;;;0.73;;
36211;SDS011;22247;48.586;13.492;2022-10-16T12:38:26;2.20;;;0.63;;
36211;SDS011;22247;48.586;13.492;2022-10-16T12:41:02;2.65;;;0.50;;
36211;SDS011;22247;48.586;13.492;2022-10-16T12:48:37;1.20;;;0.60;;
36211;SDS011;22247;48.586;13.492;2022-10-16T12:53:57;2.75;;;0.50;;
36211;SDS011;22247;48.586;13.492;2022-10-16T12:57:03;4.80;;;0.60;;
36211;SDS011;22247;48.586;13.492;2022-10-16T13:18:21;3.92;;;0.60;;
36211;SDS011;22247;48.586;13.492;2022-10-16T13:28:28;2.58;;;0.60;;
36211;SDS011;22247;48.586;13.492;2022-10-16T13:35:53;3.22;;;0.60;;
36211;SDS011;22247;48.586;13.492;2022-10-16T13:38:21;1.60;;;0.55;;
36211;SDS011;22247;48.586;13.492;2022-10-16T13:40:49;2.75;;;0.70;;
36211;SDS011;22247;48.586;13.492;2022-10-16T13:43:16;5.93;;;0.73;;
36211;SDS011;22247;48.586;13.492;2022-10-16T13:45:54;3.63;;;0.80;;
36211;SDS011;22247;48.586;13.492;2022-10-16T13:48:24;3.10;;;0.60;;
36211;SDS011;22247;48.586;13.492;2022-10-16T13:51:06;3.22;;;0.60;;
36211;SDS011;22247;48.586;13.492;2022-10-16T13:53:35;4.88;;;0.52;;
36211;SDS011;22247;48.586;13.492;2022-10-16T13:56:02;8.57;;;1.08;;
36211;SDS011;22247;48.586;13.492;2022-10-16T13:58:29;5.47;;;1.45;;
36211;SDS011;22247;48.586;13.492;2022-10-16T14:00:59;6.38;;;0.52;;
36211;SDS011;22247;48.586;13.492;2022-10-16T14:03:41;1.52;;;0.50;;
36211;SDS011;22247;48.586;13.492;2022-10-16T14:06:10;2.90;;;0.70;;
36211;SDS011;22247;48.586;13.492;2022-10-16T14:08:44;1.10;;;0.45;;
36211;SDS011;22247;48.586;13.492;2022-10-16T14:11:19;1.95;;;0.55;;
36211;SDS011;22247;48.586;13.492;2022-10-16T14:13:46;2.50;;;0.52;;
36211;SDS011;22247;48.586;13.492;2022-10-16T14:16:16;1.10;;;0.60;;
36211;SDS011;22247;48.586;13.492;2022-10-16T14:19:06;3.97;;;1.27;;
36211;SDS011;22247;48.586;13.492;2022-10-16T14:21:42;2.10;;;0.40;;
36211;SDS011;22247;48.586;13.492;2022-10-16T14:24:11;3.70;;;0.40;;
36211;SDS011;22247;48.586;13.492;2022-10-16T14:26:42;3.33;;;0.30;;
36211;SDS011;22247;48.586;13.492;2022-10-16T14:29:14;5.07;;;0.65;;
36211;SDS011;22247;48.586;13.492;2022-10-16T14:31:53;2.95;;;0.50;;
36211;SDS011;22247;48.586;13.492;2022-10-16T14:34:28;4.47;;;0.32;;
36211;SDS011;22247;48.586;13.492;2022-10-16T14:37:10;1.80;;;0.40;;
36211;SDS011;22247;48.586;13.492;2022-10-16T14:39:51;4.32;;;0.38;;
36211;SDS011;22247;48.586;13.492;2022-10-16T14:42:18;4.35;;;0.70;;
36211;SDS011;22247;48.586;13.492;2022-10-16T14:44:48;2.05;;;0.30;;
36211;SDS011;22247;48.586;13.492;2022-10-16T14:47:18;4.10;;;0.40;;
36211;SDS011;22247;48.586;13.492;2022-10-16T14:49:50;3.00;;;0.43;;
36211;SDS011;22247;48.586;13.492;2022-10-16T14:52:16;5.90;;;0.30;;
36211;SDS011;22247;48.586;13.492;2022-10-16T14:54:42;8.40;;;0.77;;
36211;SDS011;22247;48.586;13.492;2022-10-16T14:57:16;3.83;;;0.50;;
36211;SDS011;22247;48.586;13.492;2022-10-16T14:59:48;4.25;;;0.30;;
36211;SDS011;22247;48.586;13.492;2022-10-16T15:04:55;5.43;;;0.40;;
36211;SDS011;22247;48.586;13.492;2022-10-16T15:07:21;4.97;;;0.50;;
36211;SDS011;22247;48.586;13.492;2022-10-16T15:09:48;5.78;;;0.60;;
36211;SDS011;22247;48.586;13.492;2022-10-16T15:12:14;4.10;;;0.63;;
36211;SDS011;22247;48.586;13.492;2022-10-16T15:14:42;2.45;;;0.50;;
36211;SDS011;22247;48.586;13.492;2022-10-16T15:17:11;6.67;;;0.50;;
36211;SDS011;22247;48.586;13.492;2022-10-16T15:19:37;8.70;;;0.70;;
36211;SDS011;22247;48.586;13.492;2022-10-16T15:22:05;1.95;;;0.85;;
36211;SDS011;22247;48.586;13.492;2022-10-16T15:24:34;3.00;;;0.50;;
36211;SDS011;22247;48.586;13.492;2022-10-16T15:27:00;3.28;;;0.50;;
36211;SDS011;22247;48.586;13.492;2022-10-16T15:29:25;5.55;;;0.50;;
36211;SDS011;22247;48.586;13.492;2022-10-16T15:31:51;3.72;;;0.70;;
36211;SDS011;22247;48.586;13.492;2022-10-16T15:34:17;6.15;;;0.80;;
36211;SDS011;22247;48.586;13.492;2022-10-16T15:36:44;13.57;;;0.60;;
36211;SDS011;22247;48.586;13.492;2022-10-16T15:39:19;10.48;;;0.50;;
36211;SDS011;22247;48.586;13.492;2022-10-16T15:41:46;9.75;;;0.60;;
36211;SDS011;22247;48.586;13.492;2022-10-16T15:44:18;2.55;;;0.85;;
36211;SDS011;22247;48.586;13.492;2022-10-16T15:46:44;3.75;;;0.40;;
36211;SDS011;22247;48.586;13.492;2022-10-16T15:49:10;5.97;;;0.80;;
36211;SDS011;22247;48.586;13.492;2022-10-16T15:51:40;4.10;;;0.60;;
36211;SDS011;22247;48.586;13.492;2022-10-16T15:54:07;3.33;;;0.40;;
36211;SDS011;22247;48.586;13.492;2022-10-16T15:56:35;3.08;;;0.47;;
36211;SDS011;22247;48.586;13.492;2022-10-16T15:59:02;6.28;;;0.40;;
36211;SDS011;22247;48.586;13.492;2022-10-16T16:01:36;4.70;;;0.98;;
36211;SDS011;22247;48.586;13.492;2022-10-16T16:04:01;2.00;;;0.85;;
36211;SDS011;22247;48.586;13.492;2022-10-16T16:06:29;6.78;;;0.40;;
36211;SDS011;22247;48.586;13.492;2022-10-16T16:08:55;2.72;;;0.57;;
36211;SDS011;22247;48.586;13.492;2022-10-16T16:11:21;2.30;;;0.52;;
36211;SDS011;22247;48.586;13.492;2022-10-16T16:13:48;5.20;;;1.48;;
36211;SDS011;22247;48.586;13.492;2022-10-16T16:16:16;10.57;;;1.38;;
36211;SDS011;22247;48.586;13.492;2022-10-16T16:18:44;3.58;;;0.50;;
36211;SDS011;22247;48.586;13.492;2022-10-16T16:21:11;11.52;;;0.88;;
36211;SDS011;22247;48.586;13.492;2022-10-16T16:23:39;3.97;;;0.50;;
36211;SDS011;22247;48.586;13.492;2022-10-16T16:26:09;5.85;;;0.60;;
36211;SDS011;22247;48.586;13.492;2022-10-16T16:29:03;13.40;;;0.73;;
36211;SDS011;22247;48.586;13.492;2022-10-16T16:31:29;4.55;;;0.70;;
36211;SDS011;22247;48.586;13.492;2022-10-16T16:33:56;1.80;;;0.70;;
36211;SDS011;22247;48.586;13.492;2022-10-16T16:36:27;5.68;;;1.25;;
36211;SDS011;22247;48.586;13.492;2022-10-16T16:38:53;6.60;;;0.50;;
36211;SDS011;22247;48.586;13.492;2022-10-16T16:41:20;5.72;;;0.70;;
36211;SDS011;22247;48.586;13.492;2022-10-16T16:43:50;8.45;;;0.60;;
36211;SDS011;22247;48.586;13.492;2022-10-16T16:46:19;5.10;;;0.70;;
36211;SDS011;22247;48.586;13.492;2022-10-16T16:48:47;4.68;;;0.75;;
36211;SDS011;22247;48.586;13.492;2022-10-16T16:51:16;5.53;;;1.05;;
36211;SDS011;22247;48.586;13.492;2022-10-16T16:53:45;6.47;;;0.80;;
36211;SDS011;22247;48.586;13.492;2022-10-16T16:56:15;8.27;;;1.73;;
36211;SDS011;22247;48.586;13.492;2022-10-16T16:58:44;4.60;;;0.82;;
36211;SDS011;22247;48.586;13.492;2022-10-16T17:01:11;9.10;;;0.85;;
36211;SDS011;22247;48.586;13.492;2022-10-16T17:03:37;9.15;;;0.82;;
36211;SDS011;22247;48.586;13.492;2022-10-16T17:06:06;2.20;;;0.60;;
36211;SDS011;22247;48.586;13.492;2022-10-16T17:08:33;9.85;;;1.15;;
36211;SDS011;22247;48.586;13.492;2022-10-16T17:11:00;8.75;;;0.60;;
36211;SDS011;22247;48.586;13.492;2022-10-16T17:13:27;5.05;;;0.60;;
36211;SDS011;22247;48.586;13.492;2022-10-16T17:15:55;5.97;;;0.40;;
36211;SDS011;22247;48.586;13.492;2022-10-16T17:18:23;6.38;;;0.60;;
36211;SDS011;22247;48.586;13.492;2022-10-16T17:20:49;6.93;;;0.68;;
36211;SDS011;22247;48.586;13.492;2022-10-16T17:23:16;4.30;;;0.50;;
36211;SDS011;22247;48.586;13.492;2022-10-16T17:25:43;3.92;;;0.45;;
36211;SDS011;22247;48.586;13.492;2022-10-16T17:28:09;3.30;;;0.50;;
36211;SDS011;22247;48.586;13.492;2022-10-16T17:30:41;10.93;;;0.60;;
36211;SDS011;22247;48.586;13.492;2022-10-16T17:33:08;3.97;;;0.52;;
36211;SDS011;22247;48.586;13.492;2022-10-16T17:35:43;6.95;;;0.60;;
36211;SDS011;22247;48.586;13.492;2022-10-16T17:38:11;12.52;;;1.30;;
36211;SDS011;22247;48.586;13.492;2022-10-16T17:40:39;9.27;;;0.68;;
36211;SDS011;22247;48.586;13.492;2022-10-16T17:43:06;5.47;;;0.98;;
36211;SDS011;22247;48.586;13.492;2022-10-16T17:45:37;3.72;;;0.50;;
36211;SDS011;22247;48.586;13.492;2022-10-16T17:48:03;6.45;;;0.90;;
36211;SDS011;22247;48.586;13.492;2022-10-16T17:50:29;2.63;;;0.70;;
36211;SDS011;22247;48.586;13.492;2022-10-16T17:52:55;7.13;;;0.80;;
36211;SDS011;22247;48.586;13.492;2022-10-16T17:55:21;5.40;;;1.50;;
36211;SDS011;22247;48.586;13.492;2022-10-16T17:57:49;11.40;;;0.82;;
36211;SDS011;22247;48.586;13.492;2022-10-16T18:00:18;8.27;;;2.92;;
36211;SDS011;22247;48.586;13.492;2022-10-16T18:02:44;23.27;;;9.93;;
36211;SDS011;22247;48.586;13.492;2022-10-16T18:05:10;21.42;;;9.15;;
36211;SDS011;22247;48.586;13.492;2022-10-16T18:07:36;18.92;;;3.30;;
36211;SDS011;22247;48.586;13.492;2022-10-16T18:10:03;17.80;;;9.65;;